createdAt,value
2018-09-20T00:00:18.593Z,71.1
2018-09-20T00:00:59.029Z,71.77
2018-09-20T00:01:39.396Z,71.35
2018-09-20T00:02:19.804Z,71.73
2018-09-20T00:03:00.202Z,71.83
2018-09-20T00:03:40.743Z,72.31
2018-09-20T00:04:21.170Z,72.12
2018-09-20T00:05:01.600Z,71.93
2018-09-20T00:05:41.986Z,72.41
2018-09-20T00:06:22.436Z,72.69
2018-09-20T00:07:02.782Z,72.5
2018-09-20T00:07:43.192Z,72.89
2018-09-20T00:08:23.638Z,73.27
2018-09-20T00:09:04.040Z,73.37
2018-09-20T00:09:44.433Z,73.46
2018-09-20T00:10:24.999Z,73.37
2018-09-20T00:11:05.264Z,74.04
2018-09-20T00:11:45.642Z,73.75
2018-09-20T00:12:26.063Z,73.66
2018-09-20T00:13:06.459Z,73.75
2018-09-20T00:13:46.862Z,73.85
2018-09-20T00:14:27.248Z,73.75
2018-09-20T00:15:07.685Z,73.85
2018-09-20T00:15:48.038Z,73.91
2018-09-20T00:16:28.484Z,73.66
2018-09-20T00:17:08.869Z,73.72
2018-09-20T00:19:07.336Z,73.62
2018-09-20T00:19:47.694Z,73.46
2018-09-20T00:20:28.059Z,73.75
2018-09-20T00:21:08.508Z,73.66
2018-09-20T00:21:48.863Z,73.81
2018-09-20T00:22:29.291Z,73.81
2018-09-20T00:23:09.704Z,73.56
2018-09-20T00:23:50.235Z,74.13
2018-09-20T00:24:30.491Z,73.56
2018-09-20T00:25:10.992Z,74.04
2018-09-20T00:25:51.373Z,73.75
2018-09-20T00:26:31.754Z,74.04
2018-09-20T00:27:12.159Z,74.13
2018-09-20T00:27:52.557Z,74.13
2018-09-20T00:28:33.003Z,74.1
2018-09-20T00:29:13.362Z,74.43
2018-09-20T00:29:53.766Z,74.19
2018-09-20T00:30:34.240Z,74.01
2018-09-20T00:31:14.532Z,74.13
2018-09-20T00:31:55.058Z,74.58
2018-09-20T00:32:35.472Z,74.1
2018-09-20T00:33:15.787Z,74.39
2018-09-20T00:33:56.147Z,74.39
2018-09-20T00:34:36.564Z,74.77
2018-09-20T00:35:16.963Z,74.87
2018-09-20T00:35:57.359Z,74.96
2018-09-20T00:36:37.790Z,74.96
2018-09-20T00:37:18.213Z,74.96
2018-09-20T00:37:58.594Z,74.77
2018-09-20T00:38:38.993Z,75.06
2018-09-20T00:39:19.403Z,75.06
2018-09-20T00:39:59.809Z,75.45
2018-09-20T00:40:40.215Z,75.35
2018-09-20T00:41:20.700Z,75.15
2018-09-20T00:42:01.048Z,75.45
2018-09-20T00:42:41.482Z,74.96
2018-09-20T00:43:21.915Z,75.45
2018-09-20T00:44:02.338Z,75.54
2018-09-20T00:44:42.733Z,75.63
2018-09-20T00:45:23.146Z,75.63
2018-09-20T00:46:03.475Z,75.82
2018-09-20T00:46:43.879Z,76.02
2018-09-20T00:47:24.336Z,75.82
2018-09-20T00:48:04.694Z,75.63
2018-09-20T00:48:45.163Z,75.82
2018-09-20T00:49:25.532Z,75.92
2018-09-20T00:50:05.947Z,75.54
2018-09-20T00:50:46.371Z,75.35
2018-09-20T00:51:26.768Z,75.35
2018-09-20T00:52:07.243Z,75.73
2018-09-20T00:52:47.570Z,75.54
2018-09-20T00:53:27.989Z,75.54
2018-09-20T00:54:08.392Z,75.54
2018-09-20T00:54:48.788Z,75.35
2018-09-20T00:55:29.280Z,75.45
2018-09-20T00:56:09.609Z,75.06
2018-09-20T00:58:03.287Z,74.87
2018-09-20T00:58:43.573Z,75.35
2018-09-20T00:59:23.957Z,75.06
2018-09-20T01:00:04.352Z,75.15
2018-09-20T01:00:44.728Z,75.06
2018-09-20T01:01:25.238Z,75.25
2018-09-20T01:02:05.616Z,75.35
2018-09-20T01:02:46.033Z,74.68
2018-09-20T01:03:26.468Z,74.96
2018-09-20T01:04:06.882Z,75.06
2018-09-20T01:04:47.299Z,74.96
2018-09-20T01:05:27.735Z,74.87
2018-09-20T01:06:08.174Z,74.96
2018-09-20T01:06:48.533Z,74.87
2018-09-20T01:07:28.921Z,75.06
2018-09-20T01:08:09.358Z,75.25
2018-09-20T01:08:49.757Z,75.54
2018-09-20T01:09:30.162Z,75.63
2018-09-20T01:10:10.563Z,75.54
2018-09-20T01:10:50.967Z,75.73
2018-09-20T01:11:31.409Z,75.25
2018-09-20T01:12:11.772Z,75.45
2018-09-20T01:12:52.206Z,75.25
2018-09-20T01:13:32.635Z,75.73
2018-09-20T01:14:13.048Z,75.63
2018-09-20T01:14:53.427Z,75.45
2018-09-20T01:15:33.854Z,75.54
2018-09-20T01:16:14.249Z,75.45
2018-09-20T01:16:54.669Z,75.45
2018-09-20T01:17:35.076Z,75.63
2018-09-20T01:18:15.510Z,75.73
2018-09-20T01:18:55.914Z,75.73
2018-09-20T01:19:36.340Z,75.73
2018-09-20T01:20:16.720Z,75.54
2018-09-20T01:20:57.094Z,75.63
2018-09-20T01:21:37.485Z,75.73
2018-09-20T01:22:17.878Z,75.63
2018-09-20T01:22:58.257Z,75.73
2018-09-20T01:23:38.671Z,75.45
2018-09-20T01:24:19.076Z,75.63
2018-09-20T01:24:59.480Z,76.31
2018-09-20T01:25:39.889Z,76.5
2018-09-20T01:26:20.357Z,76.84
2018-09-20T01:27:00.739Z,76.56
2018-09-20T01:27:41.137Z,76.94
2018-09-20T01:28:21.548Z,77.04
2018-09-20T01:29:01.973Z,76.84
2018-09-20T01:29:42.348Z,77.61
2018-09-20T01:30:22.730Z,77.61
2018-09-20T01:33:14.132Z,78.38
2018-09-20T01:33:54.562Z,78.67
2018-09-20T01:34:34.957Z,78.67
2018-09-20T01:35:15.373Z,78.86
2018-09-20T01:35:55.770Z,78.47
2018-09-20T01:36:36.218Z,78.47
2018-09-20T01:37:16.607Z,78.38
2018-09-20T01:37:56.988Z,78.38
2018-09-20T01:38:37.428Z,78.38
2018-09-20T01:39:17.890Z,78.67
2018-09-20T01:39:58.282Z,78.86
2018-09-20T01:40:38.705Z,78.67
2018-09-20T01:41:19.121Z,78.86
2018-09-20T01:41:59.523Z,78.47
2018-09-20T01:42:39.959Z,78.67
2018-09-20T01:43:20.354Z,78.67
2018-09-20T01:44:00.728Z,78.96
2018-09-20T01:45:53.277Z,78.86
2018-09-20T01:46:35.008Z,78.86
2018-09-20T01:47:15.394Z,79.53
2018-09-20T01:49:12.986Z,79.14
2018-09-20T01:49:53.273Z,79.72
2018-09-20T01:50:33.674Z,79.91
2018-09-20T01:51:14.064Z,79.63
2018-09-20T01:51:54.476Z,79.78
2018-09-20T01:54:16.007Z,79.11
2018-09-20T01:54:55.991Z,79.14
2018-09-20T01:55:36.408Z,79.24
2018-09-20T01:56:16.802Z,79.82
2018-09-20T01:56:57.189Z,79.53
2018-09-20T01:57:37.590Z,79.34
2018-09-20T01:58:18.098Z,79.63
2018-09-20T01:58:58.383Z,78.96
2018-09-20T01:59:38.813Z,79.44
2018-09-20T02:00:19.232Z,79.34
2018-09-20T02:00:59.621Z,79.14
2018-09-20T02:01:40.091Z,79.39
2018-09-20T02:02:20.416Z,79.44
2018-09-20T02:03:00.841Z,79.44
2018-09-20T02:03:41.261Z,79.53
2018-09-20T02:04:21.625Z,79.53
2018-09-20T02:05:02.046Z,79.63
2018-09-20T02:05:42.422Z,79.44
2018-09-20T02:07:29.750Z,79.24
2018-09-20T02:08:10.168Z,79.14
2018-09-20T02:08:50.542Z,79.05
2018-09-20T02:09:30.926Z,79.34
2018-09-20T02:10:11.355Z,78.86
2018-09-20T02:10:51.730Z,78.96
2018-09-20T02:11:32.156Z,78.86
2018-09-20T02:12:12.589Z,78.57
2018-09-20T02:12:53.013Z,78.67
2018-09-20T02:13:33.394Z,78.67
2018-09-20T02:14:13.803Z,78.47
2018-09-20T02:14:54.211Z,78.67
2018-09-20T02:15:34.623Z,78.47
2018-09-20T02:16:15.063Z,78.28
2018-09-20T02:16:55.407Z,78.47
2018-09-20T02:17:35.853Z,78.28
2018-09-20T02:18:16.227Z,78.19
2018-09-20T02:19:04.149Z,78
2018-09-20T02:19:44.554Z,78.28
2018-09-20T02:20:24.934Z,78.28
2018-09-20T02:21:05.338Z,78.38
2018-09-20T02:21:45.734Z,77.65
2018-09-20T02:22:26.145Z,77.46
2018-09-20T02:23:06.533Z,77.04
2018-09-20T02:23:46.966Z,77.26
2018-09-20T02:24:27.395Z,77.08
2018-09-20T02:25:07.851Z,76.79
2018-09-20T02:25:48.211Z,76.98
2018-09-20T02:26:28.652Z,76.88
2018-09-20T02:27:09.042Z,76.79
2018-09-20T02:27:49.466Z,76.79
2018-09-20T02:28:29.845Z,76.59
2018-09-20T02:29:10.261Z,76.88
2018-09-20T02:29:50.653Z,76.69
2018-09-20T02:30:31.058Z,76.88
2018-09-20T02:31:11.472Z,76.59
2018-09-20T02:31:51.887Z,76.59
2018-09-20T02:32:32.303Z,76.5
2018-09-20T02:33:12.730Z,76.79
2018-09-20T02:33:53.149Z,76.59
2018-09-20T02:34:33.544Z,76.88
2018-09-20T02:35:13.970Z,76.88
2018-09-20T02:35:54.341Z,76.59
2018-09-20T02:36:34.736Z,76.69
2018-09-20T02:37:15.167Z,77.26
2018-09-20T02:37:55.589Z,76.98
2018-09-20T02:38:36.023Z,77.08
2018-09-20T02:39:16.380Z,77.08
2018-09-20T02:39:56.812Z,76.69
2018-09-20T02:40:37.188Z,76.69
2018-09-20T02:41:17.600Z,77.46
2018-09-20T02:41:58.052Z,77.36
2018-09-20T02:42:38.415Z,77.36
2018-09-20T02:43:18.794Z,76.98
2018-09-20T02:43:59.225Z,76.75
2018-09-20T02:44:39.667Z,76.69
2018-09-20T02:45:20.043Z,76.98
2018-09-20T02:46:00.469Z,77.36
2018-09-20T02:46:40.867Z,76.69
2018-09-20T02:49:01.482Z,76.69
2018-09-20T02:49:40.894Z,76.59
2018-09-20T02:50:21.449Z,76.69
2018-09-20T02:51:01.798Z,76.79
2018-09-20T02:51:42.192Z,77.08
2018-09-20T02:52:22.627Z,77.36
2018-09-20T02:53:03.031Z,76.59
2018-09-20T02:53:43.422Z,77.08
2018-09-20T02:54:23.802Z,77.08
2018-09-20T02:55:04.306Z,76.69
2018-09-20T02:55:44.625Z,76.88
2018-09-20T02:56:25.063Z,76.69
2018-09-20T02:57:05.450Z,76.79
2018-09-20T02:57:45.853Z,76.98
2018-09-20T02:58:26.263Z,76.69
2018-09-20T02:59:06.698Z,76.79
2018-09-20T02:59:47.072Z,76.79
2018-09-20T03:00:27.545Z,77.36
2018-09-20T03:01:07.962Z,76.98
2018-09-20T03:01:48.434Z,76.79
2018-09-20T03:02:28.788Z,77.42
2018-09-20T03:05:32.210Z,77.33
2018-09-20T03:06:12.825Z,77.61
2018-09-20T03:06:53.218Z,77.9
2018-09-20T03:07:33.645Z,77.71
2018-09-20T03:08:14.031Z,77.51
2018-09-20T03:08:54.415Z,77.8
2018-09-20T03:09:34.844Z,77.71
2018-09-20T03:10:15.258Z,78
2018-09-20T03:10:55.651Z,77.9
2018-09-20T03:11:36.070Z,78.09
2018-09-20T03:12:16.482Z,78.09
2018-09-20T03:12:56.878Z,77.9
2018-09-20T03:13:37.334Z,78.86
2018-09-20T03:14:17.715Z,78.57
2018-09-20T03:14:58.115Z,78.57
2018-09-20T03:15:38.532Z,78.77
2018-09-20T03:16:19.025Z,79.34
2018-09-20T03:16:59.407Z,79.72
2018-09-20T03:17:39.815Z,79.39
2018-09-20T03:21:01.808Z,79.97
2018-09-20T03:21:41.886Z,79.68
2018-09-20T03:22:22.244Z,80.07
2018-09-20T03:23:02.680Z,79.88
2018-09-20T03:23:43.091Z,80.07
2018-09-20T03:24:23.498Z,79.97
2018-09-20T03:25:03.849Z,80.26
2018-09-20T03:25:44.329Z,80.55
2018-09-20T03:26:24.668Z,80.93
2018-09-20T03:30:45.044Z,80.93
2018-09-20T03:31:25.360Z,80.74
2018-09-20T03:32:05.795Z,80.55
2018-09-20T03:32:46.081Z,80.35
2018-09-20T03:33:26.505Z,80.16
2018-09-20T03:34:06.917Z,79.97
2018-09-20T03:34:47.293Z,79.88
2018-09-20T03:35:27.719Z,80.07
2018-09-20T03:36:08.113Z,80.16
2018-09-20T03:36:48.568Z,79.78
2018-09-20T03:37:28.973Z,80.07
2018-09-20T03:38:09.345Z,79.63
2018-09-20T03:38:49.841Z,79.3
2018-09-20T03:39:30.159Z,78.92
2018-09-20T03:40:10.622Z,79.82
2018-09-20T03:40:50.972Z,79.3
2018-09-20T03:41:31.373Z,79.53
2018-09-20T03:42:11.789Z,79.34
2018-09-20T03:42:52.178Z,79.39
2018-09-20T03:43:32.562Z,79.11
2018-09-20T03:44:12.980Z,79.78
2018-09-20T03:44:53.374Z,79.21
2018-09-20T03:45:33.771Z,79.68
2018-09-20T03:46:14.209Z,79.97
2018-09-20T03:46:54.588Z,79.3
2018-09-20T03:47:35.106Z,79.68
2018-09-20T03:48:15.449Z,79.24
2018-09-20T03:50:14.463Z,79.68
2018-09-20T03:50:55.124Z,79.88
2018-09-20T03:51:35.531Z,80.07
2018-09-20T03:52:15.901Z,80.07
2018-09-20T03:52:56.360Z,80.26
2018-09-20T03:53:36.708Z,80.07
2018-09-20T03:54:17.126Z,80.07
2018-09-20T03:54:57.546Z,79.68
2018-09-20T03:55:38.053Z,79.11
2018-09-20T03:56:18.362Z,79.59
2018-09-20T03:56:58.759Z,80.07
2018-09-20T03:57:39.204Z,79.97
2018-09-20T03:58:19.572Z,79.78
2018-09-20T03:58:59.988Z,80.07
2018-09-20T03:59:40.483Z,80.07
2018-09-20T04:00:20.782Z,80.07
2018-09-20T04:01:01.192Z,79.88
2018-09-20T04:01:41.679Z,80.07
2018-09-20T04:02:21.997Z,80.07
2018-09-20T04:03:03.564Z,80.74
2018-09-20T04:03:43.146Z,80.55
2018-09-20T04:04:23.496Z,80.55
2018-09-20T04:05:03.989Z,81.02
2018-09-20T04:05:44.355Z,80.93
2018-09-20T04:06:24.797Z,81.02
2018-09-20T04:07:05.213Z,81.22
2018-09-20T04:07:45.657Z,80.93
2018-09-20T04:08:25.984Z,80.93
2018-09-20T04:09:06.614Z,80.93
2018-09-20T04:09:47.116Z,80.64
2018-09-20T04:10:27.428Z,81.02
2018-09-20T04:11:07.770Z,81.41
2018-09-20T04:11:48.248Z,81.37
2018-09-20T04:12:28.675Z,81.51
2018-09-20T04:13:09.011Z,81.75
2018-09-20T04:13:49.500Z,81.85
2018-09-20T04:14:29.853Z,82.32
2018-09-20T04:15:10.314Z,82.14
2018-09-20T04:15:53.900Z,81.95
2018-09-20T04:16:34.248Z,82.52
2018-09-20T04:17:14.677Z,82.71
2018-09-20T04:17:55.134Z,82.81
2018-09-20T04:18:35.486Z,81.85
2018-09-20T04:19:15.867Z,81.95
2018-09-20T04:19:56.361Z,82.14
2018-09-20T04:20:36.737Z,82.71
2018-09-20T04:21:17.125Z,82.32
2018-09-20T04:21:57.525Z,82.14
2018-09-20T04:22:37.948Z,81.85
2018-09-20T04:23:18.392Z,82.62
2018-09-20T04:25:23.739Z,82.81
2018-09-20T04:27:26.657Z,82.75
2018-09-20T05:08:18.403Z,87.74
2018-09-20T05:09:10.731Z,88.23
2018-09-20T05:10:03.578Z,88.03
2018-09-20T05:10:55.857Z,87.65
2018-09-20T05:11:48.380Z,87.27
2018-09-20T05:12:40.859Z,87.46
2018-09-20T05:13:33.135Z,87.74
2018-09-20T05:14:28.348Z,87.27
2018-09-20T05:15:20.811Z,87.84
2018-09-20T05:16:15.291Z,86.6
2018-09-20T05:17:10.332Z,86.88
2018-09-20T05:18:04.111Z,86.02
2018-09-20T05:18:59.027Z,86.31
2018-09-20T05:19:52.662Z,86.31
2018-09-20T05:20:46.412Z,86.83
2018-09-20T05:21:41.834Z,85.49
2018-09-20T05:22:35.781Z,85.49
2018-09-20T05:23:30.448Z,84.72
2018-09-20T05:24:23.056Z,84.44
2018-09-20T05:25:16.073Z,84.15
2018-09-20T05:26:08.318Z,84.15
2018-09-20T05:27:01.002Z,84.25
2018-09-20T05:27:54.926Z,84.15
2018-09-20T05:28:47.603Z,83.48
2018-09-20T05:29:40.482Z,84.34
2018-09-20T05:30:33.320Z,83.61
2018-09-20T05:31:33.209Z,83.67
2018-09-20T05:32:25.861Z,83.38
2018-09-20T05:33:19.897Z,83.67
2018-09-20T05:34:13.392Z,83.38
2018-09-20T05:35:05.947Z,83.86
2018-09-20T05:35:58.340Z,84.28
2018-09-20T05:36:50.411Z,83.91
2018-09-20T05:37:31.420Z,82.46
2018-09-20T05:38:12.302Z,81.98
2018-09-20T05:38:53.453Z,81.6
2018-09-20T05:39:33.894Z,81.45
2018-09-20T05:40:19.649Z,80.58
2018-09-20T05:41:00.133Z,79.82
2018-09-20T05:41:40.596Z,79.72
2018-09-20T05:42:21.707Z,79.19
2018-09-20T05:43:02.002Z,78.52
2018-09-20T05:44:42.338Z,77.36
2018-09-20T05:45:22.892Z,76.64
2018-09-20T05:46:04.034Z,76.34
2018-09-20T06:13:56.353Z,64.53
2018-09-20T06:14:37.271Z,64.28
2018-09-20T06:15:17.720Z,63.98
2018-09-20T06:15:58.092Z,63.7
2018-09-20T06:16:38.503Z,63.6
2018-09-20T06:17:18.924Z,63.21
2018-09-20T06:17:59.316Z,63.21
2018-09-20T06:18:39.723Z,63.21
2018-09-20T06:19:20.091Z,63.12
2018-09-20T06:20:00.532Z,62.57
2018-09-20T06:20:41.887Z,62.57
2018-09-20T06:21:21.449Z,62.48
2018-09-20T06:22:01.857Z,61.71
2018-09-20T06:22:42.307Z,62.09
2018-09-20T06:23:22.721Z,61.54
2018-09-20T06:24:03.196Z,60.96
2018-09-20T06:24:43.620Z,61.06
2018-09-20T06:25:24.115Z,60.71
2018-09-20T06:26:04.470Z,60.51
2018-09-20T06:26:44.897Z,59.93
2018-09-20T06:27:25.344Z,59.55
2018-09-20T06:28:05.776Z,59.74
2018-09-20T06:28:46.146Z,59.93
2018-09-20T06:29:26.556Z,60.03
2018-09-20T06:30:07.057Z,60.41
2018-09-20T06:30:47.432Z,60.13
2018-09-20T06:31:28.629Z,59.93
2018-09-20T06:32:08.343Z,60.03
2018-09-20T06:32:48.745Z,60.03
2018-09-20T06:33:29.177Z,60.13
2018-09-20T06:34:09.633Z,59.64
2018-09-20T06:34:50.114Z,59.64
2018-09-20T06:35:31.476Z,59.55
2018-09-20T06:36:11.386Z,59.06
2018-09-20T06:36:51.688Z,58.9
2018-09-20T06:37:32.040Z,59
2018-09-20T06:38:12.442Z,58.87
2018-09-20T06:38:52.868Z,59.06
2018-09-20T06:39:33.313Z,58.9
2018-09-20T06:40:13.768Z,59.45
2018-09-20T06:40:54.940Z,59.93
2018-09-20T06:41:34.949Z,59.74
2018-09-20T06:42:16.523Z,59.83
2018-09-20T06:42:56.299Z,59.74
2018-09-20T06:43:36.742Z,59.74
2018-09-20T06:44:17.134Z,59.45
2018-09-20T06:44:57.725Z,59.55
2018-09-20T06:45:38.125Z,60.03
2018-09-20T06:46:18.553Z,60.13
2018-09-20T06:46:59.032Z,60.41
2018-09-20T06:47:40.242Z,60.31
2018-09-20T06:48:20.676Z,60.86
2018-09-20T06:49:01.116Z,60.86
2018-09-20T06:49:41.558Z,60.68
2018-09-20T06:50:22.120Z,61.25
2018-09-20T06:51:02.667Z,61.35
2018-09-20T06:51:43.141Z,61.54
2018-09-20T06:52:23.682Z,62.12
2018-09-20T06:53:04.148Z,61.93
2018-09-20T06:53:45.029Z,61.93
2018-09-20T06:54:25.460Z,62.02
2018-09-20T06:55:05.878Z,61.93
2018-09-20T06:55:46.590Z,62.22
2018-09-20T06:56:27.054Z,61.54
2018-09-20T06:57:08.405Z,62.22
2018-09-20T06:57:47.979Z,62.31
2018-09-20T06:58:28.426Z,62.6
2018-09-20T06:59:08.835Z,62.02
2018-09-20T06:59:49.304Z,62.51
2018-09-20T07:00:29.750Z,62.31
2018-09-20T07:01:24.713Z,62.6
2018-09-20T07:03:17.263Z,62.51
2018-09-20T07:03:57.470Z,63.28
2018-09-20T07:04:37.949Z,62.96
2018-09-20T07:05:18.359Z,63.37
2018-09-20T07:06:21.852Z,63.47
2018-09-20T07:08:20.719Z,62.6
2018-09-20T07:09:01.194Z,62.12
2018-09-20T07:09:41.631Z,62.41
2018-09-20T07:10:22.069Z,62.6
2018-09-20T07:11:02.489Z,62.51
2018-09-20T07:11:42.942Z,62.41
2018-09-20T07:12:23.403Z,61.86
2018-09-20T07:13:03.824Z,61.86
2018-09-20T07:13:44.301Z,61.38
2018-09-20T07:14:24.671Z,61.57
2018-09-20T07:15:05.076Z,61.57
2018-09-20T07:15:45.462Z,61.09
2018-09-20T07:16:25.863Z,60.89
2018-09-20T07:17:06.726Z,60.99
2018-09-20T07:17:46.908Z,60.99
2018-09-20T07:18:27.334Z,60.99
2018-09-20T07:19:07.765Z,61.19
2018-09-20T07:19:48.247Z,61.28
2018-09-20T07:20:28.627Z,61.28
2018-09-20T07:21:09.023Z,61.19
2018-09-20T07:21:49.447Z,60.99
2018-09-20T07:22:29.930Z,61.57
2018-09-20T07:23:10.351Z,61.09
2018-09-20T07:23:50.768Z,60.89
2018-09-20T07:24:31.305Z,60.71
2018-09-20T07:25:11.805Z,60.99
2018-09-20T07:25:52.666Z,61.02
2018-09-20T07:26:33.085Z,60.35
2018-09-20T07:27:13.696Z,60.64
2018-09-20T07:27:54.172Z,60.35
2018-09-20T07:28:34.664Z,60.35
2018-09-20T07:29:15.167Z,59.58
2018-09-20T07:29:55.585Z,59.58
2018-09-20T07:30:36.979Z,59.86
2018-09-20T07:31:16.842Z,60.54
2018-09-20T07:31:57.274Z,60.16
2018-09-20T07:32:37.783Z,60.06
2018-09-20T07:33:18.195Z,60.44
2018-09-20T07:33:58.608Z,60.35
2018-09-20T07:34:39.071Z,60.22
2018-09-20T07:35:19.467Z,60.44
2018-09-20T07:35:59.876Z,60.31
2018-09-20T07:36:40.432Z,60.99
2018-09-20T07:37:20.794Z,61.09
2018-09-20T07:38:01.896Z,61.57
2018-09-20T07:38:41.722Z,61.93
2018-09-20T07:39:22.118Z,62.12
2018-09-20T07:40:02.533Z,62.31
2018-09-20T07:40:42.966Z,62.7
2018-09-20T07:41:23.366Z,62.6
2018-09-20T07:42:03.747Z,63.18
2018-09-20T07:42:44.353Z,62.79
2018-09-20T07:43:24.692Z,62.89
2018-09-20T07:44:05.086Z,62.79
2018-09-20T07:44:45.550Z,62.89
2018-09-20T07:45:26.004Z,62.51
2018-09-20T07:46:06.491Z,62.51
2018-09-20T07:46:46.955Z,61.93
2018-09-20T07:47:27.451Z,61.77
2018-09-20T07:48:07.865Z,61.67
2018-09-20T07:48:48.308Z,61.28
2018-09-20T07:49:28.791Z,61.19
2018-09-20T07:50:09.212Z,60.44
2018-09-20T07:50:49.740Z,59.67
2018-09-20T07:51:30.207Z,59.41
2018-09-20T07:52:10.784Z,58.64
2018-09-20T07:52:51.216Z,58.18
2018-09-20T07:53:31.615Z,57.6
2018-09-20T07:54:12.015Z,57.31
2018-09-20T07:56:00.167Z,57.05
2018-09-20T07:56:40.673Z,56.37
2018-09-20T07:57:21.084Z,55.63
2018-09-20T07:58:01.453Z,54.47
2018-09-20T07:58:41.935Z,54.59
2018-09-20T07:59:22.388Z,54.01
2018-09-20T08:00:04.116Z,53.07
2018-09-20T08:00:43.821Z,52.78
2018-09-20T08:01:25.653Z,52.1
2018-09-20T08:02:05.914Z,51.93
2018-09-20T08:02:46.293Z,52.03
2018-09-20T08:03:28.079Z,51.18
2018-09-20T08:04:08.475Z,50.31
2018-09-20T08:04:50.065Z,49.75
2018-09-20T08:05:31.615Z,48.9
2018-09-20T08:06:12.844Z,48.42
2018-09-20T08:06:53.108Z,48.13
2018-09-20T08:07:34.075Z,47.35
2018-09-20T08:08:15.150Z,47.55
2018-09-20T08:08:54.976Z,47.38
2018-09-20T08:09:35.699Z,46.89
2018-09-20T08:10:16.197Z,46.81
2018-09-20T08:10:56.996Z,45.84
2018-09-20T08:11:38.675Z,45.38
2018-09-20T08:12:19.594Z,45.48
2018-09-20T08:12:59.613Z,45.01
2018-09-20T08:13:40.544Z,44.43
2018-09-20T08:14:21.583Z,44.04
2018-09-20T08:15:02.180Z,44.24
2018-09-20T08:15:43.723Z,44.06
2018-09-20T08:16:24.735Z,43.38
2018-09-20T08:17:05.505Z,43.29
2018-09-20T08:17:47.313Z,43.01
2018-09-20T08:18:27.096Z,41.85
2018-09-20T08:19:08.607Z,41.86
2018-09-20T08:19:49.197Z,41.77
2018-09-20T08:20:30.285Z,41.5
2018-09-20T08:21:10.945Z,41.01
2018-09-20T08:21:52.101Z,40.81
2018-09-20T08:22:32.259Z,40.73
2018-09-20T08:23:13.054Z,40.55
2018-09-20T08:23:54.918Z,40.06
2018-09-20T08:24:35.460Z,39.76
2018-09-20T08:25:16.320Z,39.49
2018-09-20T08:25:57.226Z,39.28
2018-09-20T08:26:38.001Z,39.67
2018-09-20T08:27:19.835Z,40.03
2018-09-20T08:28:00.592Z,40.52
2018-09-20T08:28:42.100Z,40.06
2018-09-20T08:29:21.754Z,39.76
2018-09-20T08:30:04.044Z,39.86
2018-09-20T08:30:44.705Z,39.59
2018-09-20T08:31:26.138Z,39.2
2018-09-20T08:32:06.649Z,38.9
2018-09-20T08:32:47.314Z,39.29
2018-09-20T08:33:27.912Z,39.2
2018-09-20T08:34:08.431Z,38.81
2018-09-20T08:34:48.983Z,38.82
2018-09-20T08:35:29.653Z,38.24
2018-09-20T08:36:10.127Z,38.42
2018-09-20T08:36:51.599Z,38.49
2018-09-20T08:37:31.356Z,39.45
2018-09-20T08:38:12.160Z,39.92
2018-09-20T08:38:54.590Z,40.7
2018-09-20T08:39:34.672Z,40.7
2018-09-20T08:40:15.118Z,40.7
2018-09-20T08:40:56.611Z,40.72
2018-09-20T08:42:55.123Z,40.03
2018-09-20T08:43:35.584Z,40.42
2018-09-20T08:44:16.180Z,40.42
2018-09-20T08:44:56.662Z,40.6
2018-09-20T08:45:37.153Z,40.99
2018-09-20T08:46:17.645Z,40.89
2018-09-20T08:46:58.253Z,40.41
2018-09-20T08:47:38.974Z,40.41
2018-09-20T08:48:19.978Z,40.5
2018-09-20T08:49:00.742Z,40.8
2018-09-20T08:49:41.315Z,40.72
2018-09-20T08:50:21.856Z,40.42
2018-09-20T08:51:03.783Z,39.86
2018-09-20T08:51:43.633Z,39.39
2018-09-20T08:52:24.214Z,38.9
2018-09-20T08:53:05.340Z,38.43
2018-09-20T08:53:45.590Z,38.04
2018-09-20T08:54:26.083Z,38.43
2018-09-20T08:55:06.869Z,37.75
2018-09-20T08:55:47.283Z,37.75
2018-09-20T08:56:28.744Z,37.65
2018-09-20T08:57:09.805Z,37.75
2018-09-20T08:57:49.259Z,37.77
2018-09-20T08:58:29.705Z,37.57
2018-09-20T08:59:10.189Z,37.09
2018-09-20T08:59:50.665Z,37.29
2018-09-20T09:00:45.267Z,37.29
2018-09-20T09:01:26.811Z,36.62
2018-09-20T09:04:15.376Z,36.7
2018-09-20T09:04:55.660Z,36.8
2018-09-20T09:05:36.083Z,37.38
2018-09-20T09:06:16.801Z,37.19
2018-09-20T09:06:59.196Z,37.37
2018-09-20T09:07:39.376Z,37.75
2018-09-20T09:08:19.929Z,38.22
2018-09-20T09:09:00.420Z,38.22
2018-09-20T09:09:41.940Z,38.61
2018-09-20T09:10:21.728Z,38.71
2018-09-20T09:11:02.218Z,38.71
2018-09-20T09:11:43.266Z,38.42
2018-09-20T09:12:23.987Z,38.32
2018-09-20T09:13:04.713Z,38.12
2018-09-20T09:13:45.767Z,38.02
2018-09-20T09:14:26.344Z,38.14
2018-09-20T09:15:07.305Z,37.75
2018-09-20T09:41:50.695Z,34.89
2018-09-20T09:42:32.454Z,34.48
2018-09-20T09:43:14.006Z,34.48
2018-09-20T09:43:55.647Z,34.78
2018-09-20T09:44:36.642Z,34.38
2018-09-20T09:45:17.499Z,34.57
2018-09-20T09:45:58.552Z,34.86
2018-09-20T09:46:38.833Z,35.33
2018-09-20T09:47:20.786Z,35.33
2018-09-20T09:48:04.699Z,35.53
2018-09-20T09:48:44.536Z,35.55
2018-09-20T09:49:25.236Z,34.86
2018-09-20T09:50:05.963Z,34.48
2018-09-20T09:50:46.863Z,34.11
2018-09-20T09:51:27.797Z,33.82
2018-09-20T09:52:11.209Z,33.05
2018-09-20T09:52:51.780Z,32.86
2018-09-20T09:53:32.817Z,33.05
2018-09-20T09:54:13.723Z,32.56
2018-09-20T09:55:02.286Z,32.39
2018-09-20T09:55:43.207Z,31.6
2018-09-20T09:56:23.631Z,31.7
2018-09-20T09:57:04.212Z,31.7
2018-09-20T09:57:49.915Z,31.51
2018-09-20T09:58:30.379Z,31.52
2018-09-20T09:59:11.237Z,31.13
2018-09-20T09:59:51.841Z,31.21
2018-09-20T10:00:33.055Z,31.23
2018-09-20T10:01:13.689Z,31.42
2018-09-20T10:01:55.763Z,31.23
2018-09-20T10:02:36.515Z,30.94
2018-09-20T10:03:17.033Z,30.85
2018-09-20T10:03:57.680Z,30.16
2018-09-20T10:04:39.044Z,30.26
2018-09-20T10:05:20.621Z,30.07
2018-09-20T10:06:00.378Z,29.97
2018-09-20T10:06:40.967Z,29.79
2018-09-20T10:07:21.796Z,29.69
2018-09-20T10:08:02.319Z,29.69
2018-09-20T10:08:42.763Z,29.69
2018-09-20T10:09:23.552Z,29.69
2018-09-20T10:10:03.668Z,29.3
2018-09-20T10:10:44.149Z,29.39
2018-09-20T10:11:25.015Z,29.3
2018-09-20T10:12:05.516Z,29.3
2018-09-20T10:12:47.406Z,29.3
2018-09-20T10:13:30.494Z,29.31
2018-09-20T10:14:11.018Z,29.31
2018-09-20T10:14:53.493Z,29.31
2018-09-20T10:15:33.115Z,28.63
2018-09-20T10:16:14.167Z,28.44
2018-09-20T10:16:54.702Z,28.54
2018-09-20T10:17:35.379Z,28.34
2018-09-20T10:18:16.621Z,28.16
2018-09-20T10:18:57.347Z,27.69
2018-09-20T10:19:38.783Z,27.88
2018-09-20T10:20:20.155Z,27.49
2018-09-20T10:21:00.103Z,27.98
2018-09-20T10:21:40.843Z,27.97
2018-09-20T10:22:23.868Z,28.36
2018-09-20T10:23:04.164Z,28.43
2018-09-20T10:23:47.168Z,28.63
2018-09-20T10:24:27.881Z,28.63
2018-09-20T10:25:08.435Z,28.82
2018-09-20T10:25:49.430Z,28.64
2018-09-20T10:26:31.271Z,28.54
2018-09-20T10:27:12.254Z,28.34
2018-09-20T10:27:53.105Z,28.33
2018-09-20T10:28:34.435Z,28.72
2018-09-20T11:11:12.071Z,28.13
2018-09-20T11:12:12.133Z,28.15
2018-09-20T11:13:09.004Z,27.47
2018-09-20T11:14:04.726Z,26.4
2018-09-20T11:15:10.650Z,27.26
2018-09-20T11:16:10.442Z,27.45
2018-09-20T11:17:06.742Z,27.53
2018-09-20T11:18:13.007Z,28.12
2018-09-20T11:19:12.288Z,28.5
2018-09-20T11:23:45.451Z,29.56
2018-09-20T11:24:39.846Z,29.46
2018-09-20T11:50:07.809Z,26.41
2018-09-20T11:51:10.075Z,26.5
2018-09-20T11:52:10.726Z,26.59
2018-09-20T11:53:15.222Z,26.41
2018-09-20T11:55:04.091Z,26.1
2018-09-20T11:55:44.754Z,26.29
2018-09-20T11:56:25.232Z,26.5
2018-09-20T11:57:05.758Z,26.41
2018-09-20T11:57:46.824Z,26.01
2018-09-20T11:58:27.161Z,25.92
2018-09-20T11:59:07.926Z,25.82
2018-09-20T11:59:49.147Z,25.92
2018-09-20T12:00:29.740Z,26.03
2018-09-20T12:01:10.264Z,25.63
2018-09-20T12:01:51.013Z,25.34
2018-09-20T12:02:32.095Z,25.34
2018-09-20T12:03:13.586Z,25.54
2018-09-20T12:03:54.699Z,25.35
2018-09-20T12:04:34.917Z,25.05
2018-09-20T12:05:15.460Z,25.05
2018-09-20T12:05:56.149Z,24.85
2018-09-20T12:07:58.782Z,25.24
2018-09-20T12:08:39.796Z,25.04
2018-09-20T12:09:20.467Z,24.95
2018-09-20T12:10:03.778Z,24.85
2018-09-20T12:10:45.393Z,25.34
2018-09-20T12:11:26.211Z,25.24
2018-09-20T12:12:07.296Z,25.33
2018-09-20T12:12:48.224Z,25.33
2018-09-20T12:13:29.460Z,25.23
2018-09-20T12:14:10.885Z,25.13
2018-09-20T12:14:51.118Z,25.72